Time;durP1;ratioP1;P1;durP2;ratioP2;P2;SDS_P1;SDS_P2;PMS_P1;PMS_P2;Temp;Humidity;BMP_temperature;BMP_pressure;BME280_temperature;BME280_humidity;BME280_pressure;Samples;Min_cycle;Max_cycle;Signal;HPM_P1;HPM_P2
2021/03/15 00:00:48;;;;;;;32.97;25.23;;;28.10;85.10;;;;;;5021678;28;20064;-48
2021/03/15 00:03:15;;;;;;;35.00;24.20;;;28.10;85.00;;;;;;5021155;28;20152;-47
2021/03/15 00:05:41;;;;;;;39.22;27.13;;;28.10;84.90;;;;;;5021690;28;20029;-50
2021/03/15 00:08:08;;;;;;;43.88;30.80;;;28.10;84.60;;;;;;5021089;28;20391;-52
2021/03/15 00:10:36;;;;;;;38.13;27.90;;;28.00;84.40;;;;;;5021730;28;20029;-48
2021/03/15 00:13:04;;;;;;;36.95;27.38;;;28.00;84.40;;;;;;5021183;28;20024;-51
2021/03/15 00:15:31;;;;;;;32.55;23.33;;;28.00;84.40;;;;;;5004165;28;20341;-46
2021/03/15 00:17:58;;;;;;;27.90;20.00;;;28.00;84.40;;;;;;5020908;28;20033;-50
2021/03/15 00:20:24;;;;;;;24.48;17.25;;;28.00;84.50;;;;;;5021385;28;20035;-47
2021/03/15 00:22:51;;;;;;;28.25;17.50;;;28.00;84.40;;;;;;5020998;28;20021;-51
2021/03/15 00:25:19;;;;;;;22.80;13.00;;;28.00;84.30;;;;;;5019898;28;20222;-46
2021/03/15 00:27:46;;;;;;;15.32;11.32;;;28.00;84.40;;;;;;5020754;28;20195;-45
2021/03/15 00:30:17;;;;;;;20.95;16.02;;;28.00;84.50;;;;;;5021056;28;20052;-45
2021/03/15 00:32:46;;;;;;;22.45;16.10;;;28.00;84.50;;;;;;5020618;28;20028;-46
2021/03/15 00:35:17;;;;;;;18.33;12.23;;;27.90;84.50;;;;;;5020250;28;20026;-48
2021/03/15 00:37:45;;;;;;;17.57;10.93;;;27.90;84.60;;;;;;5020742;28;20249;-47
2021/03/15 00:40:15;;;;;;;17.20;13.00;;;27.90;84.50;;;;;;5021081;28;20264;-48
2021/03/15 00:42:46;;;;;;;26.33;16.20;;;27.90;84.60;;;;;;5020495;28;20018;-48
2021/03/15 00:45:14;;;;;;;16.80;10.73;;;27.90;84.80;;;;;;5003716;28;20310;-52
2021/03/15 00:47:41;;;;;;;15.25;10.60;;;27.90;85.00;;;;;;5020180;28;20263;-47
2021/03/15 00:50:16;;;;;;;14.23;9.60;;;27.90;85.10;;;;;;5020717;28;20033;-47
2021/03/15 00:52:44;;;;;;;14.82;9.07;;;27.90;85.20;;;;;;5021668;28;20218;-45
2021/03/15 00:55:12;;;;;;;16.98;8.80;;;27.90;85.20;;;;;;5021360;28;20032;-49
2021/03/15 00:57:39;;;;;;;15.23;8.85;;;27.90;85.20;;;;;;5088482;28;20018;-47
2021/03/15 01:00:07;;;;;;;12.15;8.20;;;27.90;85.20;;;;;;5021288;28;20029;-47
2021/03/15 01:02:35;;;;;;;12.38;8.63;;;27.90;85.20;;;;;;5020271;28;20033;-50
2021/03/15 01:05:05;;;;;;;16.17;9.27;;;27.90;85.10;;;;;;5023114;28;20075;-50
2021/03/15 01:07:32;;;;;;;16.95;9.95;;;27.90;85.00;;;;;;5024301;28;20330;-49
2021/03/15 01:09:59;;;;;;;15.45;10.55;;;27.90;85.10;;;;;;5024367;28;20353;-45
2021/03/15 01:12:25;;;;;;;17.52;10.48;;;27.90;86.10;;;;;;5024116;28;20037;-50
2021/03/15 01:14:52;;;;;;;21.52;10.60;;;27.80;85.60;;;;;;5024327;28;20034;-50
2021/03/15 01:17:19;;;;;;;20.27;10.43;;;27.80;85.50;;;;;;5023716;28;20026;-50
2021/03/15 01:19:45;;;;;;;14.10;10.05;;;27.80;85.60;;;;;;5006768;28;20026;-49
2021/03/15 01:22:12;;;;;;;15.73;9.82;;;27.80;85.50;;;;;;5006318;28;20310;-47
2021/03/15 01:24:40;;;;;;;15.68;9.68;;;27.80;85.30;;;;;;5024037;28;20022;-48
2021/03/15 01:27:07;;;;;;;15.52;9.13;;;27.80;85.30;;;;;;5057852;28;20026;-46
2021/03/15 01:29:34;;;;;;;18.15;8.40;;;27.80;85.10;;;;;;5023894;28;20022;-43
2021/03/15 01:32:02;;;;;;;15.10;9.07;;;27.80;84.70;;;;;;4989957;28;20042;-44
2021/03/15 01:34:29;;;;;;;13.55;8.40;;;27.80;84.60;;;;;;5023504;28;20026;-44
2021/03/15 01:36:56;;;;;;;16.25;7.60;;;27.80;84.40;;;;;;5023606;28;20038;-44
2021/03/15 01:39:22;;;;;;;14.95;7.85;;;27.80;84.20;;;;;;5023617;28;20079;-43
2021/03/15 01:41:49;;;;;;;17.05;8.00;;;27.80;83.70;;;;;;5023354;28;20014;-49
2021/03/15 01:44:16;;;;;;;12.48;7.97;;;27.80;83.40;;;;;;5023613;28;20034;-46
2021/03/15 01:46:44;;;;;;;13.30;7.63;;;27.70;83.20;;;;;;5023549;28;20086;-45
2021/03/15 01:49:11;;;;;;;15.57;7.55;;;27.70;83.40;;;;;;5023492;28;20329;-46
2021/03/15 01:51:40;;;;;;;10.73;7.18;;;27.70;83.10;;;;;;5023419;28;20018;-47
2021/03/15 01:54:11;;;;;;;13.02;8.20;;;27.70;82.60;;;;;;5023560;28;20034;-46
2021/03/15 01:56:38;;;;;;;11.57;7.63;;;27.70;82.70;;;;;;5023494;28;20022;-44
2021/03/15 01:59:06;;;;;;;13.30;7.60;;;27.70;82.80;;;;;;5023084;28;20074;-44
2021/03/15 02:01:33;;;;;;;10.10;7.43;;;27.70;82.50;;;;;;5022613;28;20022;-48
2021/03/15 02:04:03;;;;;;;11.23;6.78;;;27.70;82.40;;;;;;5023247;28;20030;-46
2021/03/15 02:06:31;;;;;;;12.70;7.90;;;27.70;82.50;;;;;;5023210;28;20206;-48
2021/03/15 02:08:58;;;;;;;12.43;7.35;;;27.70;82.60;;;;;;5086729;28;20093;-46
2021/03/15 02:11:47;;;;;;;16.48;7.38;;;27.70;82.60;;;;;;5106246;28;20020;-45
2021/03/15 02:14:33;;;;;;;18.92;9.25;;;27.70;82.20;;;;;;5105394;28;20028;-51
2021/03/15 02:17:30;;;;;;;17.23;13.25;;;27.70;82.10;;;;;;5106142;28;20012;-46
2021/03/15 02:20:29;;;;;;;13.07;9.57;;;27.70;82.70;;;;;;5106356;28;20024;-48
2021/03/15 02:23:11;;;;;;;14.75;7.88;;;27.70;82.20;;;;;;5000629;28;20110;-46
2021/03/15 02:25:56;;;;;;;13.70;7.93;;;27.70;82.30;;;;;;5088140;28;20054;-44
2021/03/15 02:28:44;;;;;;;12.13;6.90;;;27.60;82.30;;;;;;5105982;28;20359;-48
2021/03/15 02:31:41;;;;;;;10.82;6.93;;;27.60;81.80;;;;;;5105615;28;20038;-45
2021/03/15 02:34:42;;;;;;;12.38;8.30;;;27.60;81.50;;;;;;5105873;28;20091;-45
2021/03/15 02:37:13;;;;;;;17.48;10.43;;;27.60;81.50;;;;;;5106031;28;20308;-50
2021/03/15 02:39:44;;;;;;;20.52;14.10;;;27.60;81.60;;;;;;5105596;28;20312;-49
2021/03/15 02:42:16;;;;;;;18.65;11.38;;;27.60;81.40;;;;;;5106084;28;20044;-46
2021/03/15 02:44:48;;;;;;;15.90;12.93;;;27.60;80.90;;;;;;5104118;28;20024;-47
2021/03/15 02:47:25;;;;;;;16.52;13.93;;;27.60;81.20;;;;;;5105492;28;20361;-45
2021/03/15 02:50:05;;;;;;;16.85;12.02;;;27.60;80.90;;;;;;5105563;28;20027;-46
2021/03/15 02:52:33;;;;;;;13.68;9.98;;;27.60;80.80;;;;;;5105539;28;20122;-47
2021/03/15 02:55:02;;;;;;;15.45;9.73;;;27.60;80.70;;;;;;5105443;28;20070;-47
2021/03/15 02:57:34;;;;;;;11.98;9.43;;;27.60;80.80;;;;;;5104852;28;20034;-47
2021/03/15 03:00:01;;;;;;;10.88;8.32;;;27.60;80.60;;;;;;5087814;28;20070;-44
2021/03/15 03:02:29;;;;;;;10.20;8.00;;;27.60;80.30;;;;;;5105693;28;20039;-43
2021/03/15 03:04:57;;;;;;;13.32;7.60;;;27.60;80.40;;;;;;5105026;28;20016;-45
2021/03/15 03:07:25;;;;;;;11.55;7.10;;;27.60;80.10;;;;;;5076497;28;20049;-44
2021/03/15 03:09:54;;;;;;;11.57;7.13;;;27.60;80.00;;;;;;5021976;28;20025;-44
2021/03/15 03:12:23;;;;;;;11.23;7.13;;;27.50;79.60;;;;;;5021894;28;20022;-45
2021/03/15 03:14:51;;;;;;;11.30;6.95;;;27.60;79.90;;;;;;5021877;28;20036;-47
2021/03/15 03:17:20;;;;;;;11.88;6.95;;;27.60;79.50;;;;;;5020987;28;20120;-47
2021/03/15 03:19:51;;;;;;;12.98;6.55;;;27.50;79.60;;;;;;5022096;28;20206;-46
2021/03/15 03:22:20;;;;;;;12.20;6.82;;;27.50;79.20;;;;;;5021931;28;20021;-47
2021/03/15 03:24:50;;;;;;;10.82;6.00;;;27.50;78.80;;;;;;5021831;28;20026;-44
2021/03/15 03:27:18;;;;;;;9.07;6.10;;;27.50;79.00;;;;;;5021742;28;20021;-48
2021/03/15 03:29:49;;;;;;;11.00;6.55;;;27.50;78.60;;;;;;5021885;28;20110;-45
2021/03/15 03:32:19;;;;;;;9.82;6.05;;;27.50;78.70;;;;;;5021972;28;20025;-47
2021/03/15 03:34:46;;;;;;;10.35;5.88;;;27.50;78.50;;;;;;5021704;28;20068;-45
2021/03/15 03:37:13;;;;;;;9.30;6.13;;;27.50;78.40;;;;;;5021974;28;20014;-46
2021/03/15 03:39:40;;;;;;;10.23;6.65;;;27.50;78.40;;;;;;5021621;28;20022;-45
2021/03/15 03:42:08;;;;;;;9.15;5.50;;;27.50;77.90;;;;;;5022004;28;20053;-45
2021/03/15 03:44:35;;;;;;;12.82;6.40;;;27.50;77.60;;;;;;5021746;28;20071;-47
2021/03/15 03:47:02;;;;;;;10.18;6.00;;;27.50;77.90;;;;;;5021795;28;20022;-46
2021/03/15 03:49:29;;;;;;;8.77;5.53;;;27.50;77.80;;;;;;5021593;28;20369;-46
2021/03/15 03:52:01;;;;;;;10.80;5.85;;;27.50;78.30;;;;;;5021820;28;20037;-44
2021/03/15 03:54:37;;;;;;;10.30;5.53;;;27.50;77.60;;;;;;5021441;28;20265;-47
2021/03/15 03:57:10;;;;;;;12.30;5.82;;;27.50;77.60;;;;;;5021720;28;20026;-49
2021/03/15 03:59:41;;;;;;;8.05;5.60;;;27.50;77.70;;;;;;5021256;28;20053;-49
2021/03/15 04:02:11;;;;;;;9.85;5.75;;;27.50;77.60;;;;;;5021638;28;20025;-44
2021/03/15 04:04:47;;;;;;;11.60;6.10;;;27.50;77.50;;;;;;5021195;28;20028;-47
2021/03/15 04:07:24;;;;;;;8.48;5.45;;;27.50;77.30;;;;;;5021407;28;20331;-49
2021/03/15 04:09:54;;;;;;;8.48;5.97;;;27.50;77.40;;;;;;5021249;28;20021;-41
2021/03/15 04:12:23;;;;;;;8.73;5.70;;;27.50;77.30;;;;;;5021359;28;20022;-42
2021/03/15 04:14:55;;;;;;;10.40;5.78;;;27.50;77.50;;;;;;5003631;28;20029;-44
2021/03/15 04:17:36;;;;;;;10.45;5.93;;;27.50;77.60;;;;;;5021267;28;20022;-52
2021/03/15 04:20:09;;;;;;;7.95;5.65;;;27.50;77.60;;;;;;5020997;28;20067;-46
2021/03/15 04:22:50;;;;;;;8.23;5.65;;;27.50;77.90;;;;;;5020882;28;20038;-45
2021/03/15 04:25:18;;;;;;;7.68;5.82;;;27.50;78.20;;;;;;5021119;28;20239;-46
2021/03/15 04:27:50;;;;;;;8.35;5.60;;;27.50;78.70;;;;;;5021512;28;20023;-50
2021/03/15 04:30:20;;;;;;;6.45;5.22;;;27.40;78.30;;;;;;5021153;28;20036;-49
2021/03/15 04:32:52;;;;;;;9.80;5.45;;;27.50;78.40;;;;;;5021351;28;20097;-45
2021/03/15 04:35:31;;;;;;;10.30;5.88;;;27.50;78.30;;;;;;5003541;28;20053;-48
2021/03/15 04:38:04;;;;;;;9.70;6.60;;;27.50;78.50;;;;;;5021882;28;20040;-48
2021/03/15 04:40:32;;;;;;;7.45;5.90;;;27.50;78.80;;;;;;5024368;28;20191;-50
2021/03/15 04:43:00;;;;;;;11.85;6.30;;;27.40;79.10;;;;;;5024976;28;20233;-44
2021/03/15 04:45:43;;;;;;;10.25;6.43;;;27.40;79.30;;;;;;5024372;28;20081;-44
2021/03/15 04:48:15;;;;;;;10.70;6.20;;;27.40;79.70;;;;;;5024320;28;20049;-47
2021/03/15 04:50:44;;;;;;;8.32;5.97;;;27.50;79.60;;;;;;5024251;28;20033;-48
2021/03/15 04:53:13;;;;;;;10.65;5.97;;;27.50;79.30;;;;;;5024220;28;20226;-43
2021/03/15 04:55:41;;;;;;;10.85;5.72;;;27.50;79.30;;;;;;5024276;28;20018;-46
2021/03/15 04:58:11;;;;;;;8.27;6.38;;;27.50;79.50;;;;;;5024140;28;20059;-46
2021/03/15 05:00:41;;;;;;;12.00;6.72;;;27.40;79.40;;;;;;5023939;28;20021;-49
2021/03/15 05:03:11;;;;;;;12.65;6.45;;;27.40;79.20;;;;;;5024141;28;20222;-46
2021/03/15 05:05:39;;;;;;;10.93;6.28;;;27.40;79.50;;;;;;5090968;28;20234;-45
2021/03/15 05:08:07;;;;;;;9.13;6.10;;;27.40;79.50;;;;;;5023796;28;20079;-46
2021/03/15 05:10:35;;;;;;;9.55;5.97;;;27.40;79.10;;;;;;5024088;28;20025;-47
2021/03/15 05:13:04;;;;;;;8.80;5.90;;;27.40;79.10;;;;;;5024176;28;20045;-44
2021/03/15 05:15:32;;;;;;;8.20;5.95;;;27.40;79.20;;;;;;5023780;28;20022;-43
2021/03/15 05:18:00;;;;;;;9.68;5.68;;;27.40;79.10;;;;;;5024717;28;20047;-48
2021/03/15 05:20:27;;;;;;;9.90;6.10;;;27.40;78.80;;;;;;5006892;28;20278;-49
2021/03/15 05:22:55;;;;;;;8.98;5.72;;;27.40;78.70;;;;;;5024730;28;20018;-48
2021/03/15 05:25:23;;;;;;;11.55;5.90;;;27.40;78.50;;;;;;5024124;28;20059;-51
2021/03/15 05:27:50;;;;;;;9.27;5.65;;;27.40;78.50;;;;;;5024204;28;20021;-47
2021/03/15 05:30:19;;;;;;;11.00;5.72;;;27.50;78.20;;;;;;5023943;28;20030;-47
2021/03/15 05:32:53;;;;;;;10.77;5.70;;;27.40;78.00;;;;;;5024407;28;20075;-49
2021/03/15 05:35:21;;;;;;;9.30;5.18;;;27.40;77.80;;;;;;5023757;28;20018;-53
2021/03/15 05:37:57;;;;;;;8.57;5.28;;;27.40;78.00;;;;;;5024137;28;20302;-47
2021/03/15 05:40:25;;;;;;;10.32;5.57;;;27.40;78.00;;;;;;5024037;28;20090;-47
2021/03/15 05:43:13;;;;;;;12.10;5.80;;;27.40;78.30;;;;;;5023568;28;20029;-52
2021/03/15 05:45:55;;;;;;;8.13;5.38;;;27.40;78.40;;;;;;5023828;28;20073;-49
2021/03/15 05:48:46;;;;;;;11.02;5.20;;;27.40;78.50;;;;;;5026433;28;20021;-46
2021/03/15 05:51:40;;;;;;;8.60;5.15;;;27.40;78.70;;;;;;5024092;28;20379;-46
2021/03/15 05:54:49;;;;;;;11.65;5.13;;;27.40;78.90;;;;;;5023633;28;20026;-44
2021/03/15 05:57:42;;;;;;;8.95;5.38;;;27.40;78.90;;;;;;5024040;28;20064;-51
2021/03/15 06:00:09;;;;;;;12.00;5.80;;;27.40;79.20;;;;;;5023489;28;20018;-46
2021/03/15 06:02:54;;;;;;;10.00;5.10;;;27.40;79.20;;;;;;5023652;28;20022;-51
2021/03/15 06:05:25;;;;;;;11.30;5.43;;;27.30;79.30;;;;;;5023313;28;20018;-46
2021/03/15 06:08:01;;;;;;;8.98;5.38;;;27.30;79.40;;;;;;5023159;28;20285;-49
2021/03/15 06:10:36;;;;;;;7.45;5.10;;;27.30;79.90;;;;;;5023295;28;20222;-45
2021/03/15 06:13:13;;;;;;;7.95;5.05;;;27.30;79.40;;;;;;5023101;28;20033;-45
2021/03/15 06:15:44;;;;;;;10.10;5.25;;;27.40;79.50;;;;;;5022894;28;20013;-46
2021/03/15 06:18:13;;;;;;;9.82;5.65;;;27.30;79.50;;;;;;5023167;28;20085;-46
2021/03/15 06:20:45;;;;;;;11.10;5.72;;;27.40;79.50;;;;;;5022779;28;20081;-45
2021/03/15 06:23:15;;;;;;;10.38;5.78;;;27.40;79.50;;;;;;5022960;28;20014;-45
2021/03/15 06:25:43;;;;;;;8.27;5.03;;;27.40;80.00;;;;;;5022963;28;20285;-45
2021/03/15 06:28:11;;;;;;;11.32;5.15;;;27.30;79.40;;;;;;5023060;28;20033;-44
2021/03/15 06:30:38;;;;;;;9.02;5.40;;;27.30;79.40;;;;;;5022686;28;20032;-44
2021/03/15 06:33:05;;;;;;;8.65;5.63;;;27.40;79.60;;;;;;5022829;28;20033;-48
2021/03/15 06:35:39;;;;;;;9.25;5.30;;;27.30;79.50;;;;;;5022814;28;20037;-45
2021/03/15 06:38:06;;;;;;;9.68;5.70;;;27.30;79.40;;;;;;5022723;28;20030;-44
2021/03/15 06:40:35;;;;;;;7.78;5.40;;;27.30;79.50;;;;;;5022564;28;20014;-46
2021/03/15 06:43:05;;;;;;;7.60;5.13;;;27.30;79.70;;;;;;5022707;28;20033;-46
2021/03/15 06:45:32;;;;;;;10.40;5.65;;;27.30;79.60;;;;;;5022722;28;20077;-47
2021/03/15 06:48:03;;;;;;;11.18;5.85;;;27.30;80.20;;;;;;5022856;28;20033;-45
2021/03/15 06:50:29;;;;;;;11.70;5.40;;;27.30;79.80;;;;;;5022498;28;20022;-43
2021/03/15 06:52:59;;;;;;;9.38;5.65;;;27.30;79.70;;;;;;5022974;28;20037;-43
2021/03/15 06:55:28;;;;;;;9.50;5.65;;;27.30;79.90;;;;;;5022334;28;20028;-47
2021/03/15 06:57:55;;;;;;;10.10;5.35;;;27.30;79.90;;;;;;5022787;28;20030;-43
2021/03/15 07:00:24;;;;;;;6.57;5.50;;;27.30;79.80;;;;;;5022220;28;20025;-44
2021/03/15 07:03:04;;;;;;;10.57;5.55;;;27.30;79.70;;;;;;5022509;28;20029;-45
2021/03/15 07:05:32;;;;;;;8.32;5.38;;;27.30;79.40;;;;;;5022438;28;20016;-46
2021/03/15 07:08:00;;;;;;;7.13;4.78;;;27.30;79.40;;;;;;5022285;28;20362;-46
2021/03/15 07:10:33;;;;;;;6.53;4.90;;;27.30;79.00;;;;;;5022210;28;20026;-47
2021/03/15 07:13:19;;;;;;;7.97;4.43;;;27.30;78.50;;;;;;5022714;28;20106;-46
2021/03/15 07:15:49;;;;;;;6.78;4.50;;;27.30;78.30;;;;;;5022059;28;20082;-45
2021/03/15 07:18:19;;;;;;;8.02;4.30;;;27.30;78.00;;;;;;5022035;28;20017;-47
2021/03/15 07:20:53;;;;;;;6.07;4.20;;;27.30;78.20;;;;;;5022156;28;20066;-44
2021/03/15 07:23:49;;;;;;;7.38;4.82;;;27.30;77.50;;;;;;5022054;28;20014;-45
2021/03/15 07:26:18;;;;;;;8.45;4.65;;;27.30;77.60;;;;;;5022110;28;20349;-46
2021/03/15 07:28:46;;;;;;;8.60;4.68;;;27.20;77.50;;;;;;5022045;28;20017;-46
2021/03/15 07:31:28;;;;;;;8.45;4.88;;;27.30;78.10;;;;;;5028264;28;20067;-44
2021/03/15 07:34:00;;;;;;;12.03;5.30;;;27.30;78.50;;;;;;5052872;28;20020;-46
2021/03/15 07:36:32;;;;;;;9.43;4.63;;;27.20;78.60;;;;;;5061389;28;20029;-45
2021/03/15 07:39:06;;;;;;;10.17;5.37;;;27.20;79.00;;;;;;5061416;28;20021;-42
2021/03/15 07:41:40;;;;;;;7.65;5.03;;;27.20;79.00;;;;;;5061586;28;20632;-41
2021/03/15 07:44:30;;;;;;;9.05;4.65;;;27.20;79.10;;;;;;5061525;28;20020;-43
2021/03/15 07:46:59;;;;;;;6.72;4.60;;;27.20;79.00;;;;;;5061489;28;20032;-42
2021/03/15 07:49:31;;;;;;;8.50;4.82;;;27.20;79.20;;;;;;5061349;28;20305;-44
2021/03/15 07:52:06;;;;;;;8.43;5.13;;;27.20;79.20;;;;;;5061455;28;20032;-44
2021/03/15 07:54:38;;;;;;;8.02;4.80;;;27.20;79.00;;;;;;5061351;28;20055;-43
2021/03/15 07:57:24;;;;;;;10.57;5.18;;;27.20;79.10;;;;;;5061552;28;20047;-42
2021/03/15 07:59:51;;;;;;;8.55;4.88;;;27.20;79.10;;;;;;5061099;28;20235;-44
2021/03/15 08:02:21;;;;;;;8.73;4.70;;;27.20;79.10;;;;;;5061594;28;20032;-44
2021/03/15 08:04:49;;;;;;;6.88;5.32;;;27.20;79.20;;;;;;5061045;28;20084;-42
2021/03/15 08:07:17;;;;;;;7.50;5.18;;;27.20;79.60;;;;;;5061138;28;20049;-44
2021/03/15 08:09:51;;;;;;;5.95;4.93;;;27.20;79.40;;;;;;5061168;28;20013;-42
2021/03/15 08:12:30;;;;;;;7.50;4.95;;;27.20;79.40;;;;;;5060477;28;20025;-46
2021/03/15 08:15:09;;;;;;;7.95;4.90;;;27.10;79.40;;;;;;5060831;28;20023;-46
2021/03/15 08:17:44;;;;;;;8.43;5.05;;;27.20;80.00;;;;;;5061082;28;20059;-45
2021/03/15 08:20:12;;;;;;;8.80;5.15;;;27.20;79.70;;;;;;5060863;28;20053;-50
2021/03/15 08:22:48;;;;;;;11.23;5.72;;;27.10;80.10;;;;;;5060500;28;20049;-44
2021/03/15 08:25:15;;;;;;;9.90;4.90;;;27.10;80.20;;;;;;5043319;28;20066;-43
2021/03/15 08:27:43;;;;;;;8.15;5.22;;;27.10;80.20;;;;;;5061293;28;20049;-43
2021/03/15 08:30:17;;;;;;;11.05;5.38;;;27.10;80.10;;;;;;5060718;28;20076;-44
2021/03/15 08:32:44;;;;;;;6.88;4.90;;;27.10;79.90;;;;;;5061173;28;20243;-43
2021/03/15 08:35:15;;;;;;;9.65;5.20;;;27.10;80.10;;;;;;5060753;28;20017;-46
2021/03/15 08:38:02;;;;;;;9.07;4.47;;;27.10;79.90;;;;;;5061101;28;20302;-42
2021/03/15 08:40:56;;;;;;;7.32;4.20;;;27.10;80.00;;;;;;5060545;28;20021;-42
2021/03/15 08:43:29;;;;;;;7.97;4.03;;;27.10;80.20;;;;;;5060405;28;20029;-41
2021/03/15 08:46:10;;;;;;;6.32;4.38;;;27.10;80.30;;;;;;5060488;28;20040;-45
2021/03/15 08:48:39;;;;;;;7.45;4.15;;;27.10;80.40;;;;;;5060532;28;20069;-44
2021/03/15 08:51:16;;;;;;;6.03;4.30;;;27.10;80.60;;;;;;5060507;28;20025;-41
2021/03/15 08:53:48;;;;;;;6.18;4.18;;;27.10;80.90;;;;;;5060541;28;20373;-44
2021/03/15 08:56:37;;;;;;;7.88;4.28;;;27.10;81.00;;;;;;5060447;28;20029;-49
2021/03/15 08:59:09;;;;;;;5.85;4.40;;;27.10;81.00;;;;;;5042941;28;20032;-48
2021/03/15 09:01:51;;;;;;;8.25;4.63;;;27.00;81.00;;;;;;5060484;28;20021;-48
2021/03/15 09:04:40;;;;;;;9.07;4.68;;;27.10;81.20;;;;;;5060693;28;20029;-47
2021/03/15 09:07:40;;;;;;;8.23;4.78;;;27.00;81.50;;;;;;5060003;28;20037;-45
2021/03/15 09:10:24;;;;;;;8.18;4.35;;;27.00;81.40;;;;;;5060253;28;20043;-48
2021/03/15 09:13:12;;;;;;;8.65;4.25;;;27.00;81.20;;;;;;5060797;28;20017;-47
2021/03/15 09:15:41;;;;;;;6.78;4.05;;;27.00;81.10;;;;;;5060369;28;20021;-43
2021/03/15 09:18:43;;;;;;;7.80;4.20;;;27.00;81.20;;;;;;5060188;28;20029;-41
2021/03/15 09:21:28;;;;;;;7.47;3.97;;;26.90;81.50;;;;;;5060369;28;20037;-45
2021/03/15 09:24:01;;;;;;;5.72;4.18;;;26.90;81.70;;;;;;5060576;28;20210;-42
2021/03/15 09:26:30;;;;;;;7.60;4.07;;;27.00;81.70;;;;;;5063771;28;20037;-46
2021/03/15 09:28:58;;;;;;;8.35;4.70;;;27.00;81.50;;;;;;5063538;28;20025;-44
2021/03/15 09:31:25;;;;;;;7.50;4.57;;;27.00;81.30;;;;;;5063641;28;20029;-47
2021/03/15 09:33:52;;;;;;;8.95;5.03;;;26.90;81.50;;;;;;5063527;28;20259;-53
2021/03/15 09:36:29;;;;;;;10.85;4.68;;;26.90;81.30;;;;;;5063407;28;20088;-50
2021/03/15 09:38:57;;;;;;;8.57;4.50;;;27.00;81.20;;;;;;5063383;28;20024;-52
2021/03/15 09:41:24;;;;;;;7.03;4.90;;;27.00;81.20;;;;;;5063784;28;20227;-44
2021/03/15 09:44:04;;;;;;;8.15;5.07;;;26.90;81.00;;;;;;5064247;28;20055;-42
2021/03/15 09:46:35;;;;;;;8.20;4.40;;;26.90;81.70;;;;;;5063901;28;20201;-47
2021/03/15 09:49:04;;;;;;;7.07;4.53;;;26.90;81.50;;;;;;5063118;28;20033;-47
2021/03/15 09:51:31;;;;;;;7.78;4.50;;;26.90;81.20;;;;;;5063640;28;20088;-46
2021/03/15 09:54:01;;;;;;;7.65;5.05;;;27.00;80.90;;;;;;5063414;28;20040;-46
2021/03/15 09:56:27;;;;;;;9.88;4.85;;;27.00;81.10;;;;;;5063424;28;20108;-43
2021/03/15 09:58:54;;;;;;;10.02;5.38;;;27.00;81.30;;;;;;5062967;28;20056;-45
2021/03/15 10:01:22;;;;;;;8.88;5.25;;;26.90;81.30;;;;;;5063408;28;20025;-47
2021/03/15 10:03:54;;;;;;;12.50;5.50;;;27.00;81.70;;;;;;5063206;28;20075;-51
2021/03/15 10:06:33;;;;;;;12.07;5.53;;;26.90;81.70;;;;;;5063216;28;20084;-44
2021/03/15 10:09:05;;;;;;;12.43;6.07;;;26.90;81.90;;;;;;5062901;27;20041;-49
2021/03/15 10:11:40;;;;;;;10.80;5.30;;;26.90;82.10;;;;;;5063358;28;20021;-47
2021/03/15 10:14:10;;;;;;;9.20;5.60;;;26.90;82.40;;;;;;5063790;28;20317;-45
2021/03/15 10:16:55;;;;;;;11.57;5.15;;;26.90;82.60;;;;;;5063103;28;20092;-48
2021/03/15 10:19:32;;;;;;;9.13;5.65;;;26.90;82.50;;;;;;5045348;28;20329;-49
2021/03/15 10:22:22;;;;;;;9.18;5.93;;;26.90;83.10;;;;;;5062951;28;20074;-46
2021/03/15 10:24:53;;;;;;;9.88;5.82;;;26.90;82.40;;;;;;5055102;28;20230;-45
2021/03/15 10:27:25;;;;;;;9.60;5.60;;;26.90;82.50;;;;;;5062789;28;20024;-42
2021/03/15 10:30:05;;;;;;;10.02;6.03;;;26.90;82.30;;;;;;5063098;28;20264;-45
2021/03/15 10:32:32;;;;;;;7.43;6.18;;;26.80;82.20;;;;;;5062612;28;20024;-43
2021/03/15 10:35:01;;;;;;;9.48;6.22;;;26.80;82.20;;;;;;5063055;28;20096;-48
2021/03/15 10:37:32;;;;;;;10.00;6.10;;;26.80;82.20;;;;;;5061684;28;20028;-47
2021/03/15 10:39:59;;;;;;;9.23;6.00;;;26.80;82.30;;;;;;5063096;28;20024;-47
2021/03/15 10:42:27;;;;;;;9.18;6.10;;;26.80;82.20;;;;;;5062478;28;20051;-53
2021/03/15 10:44:54;;;;;;;8.05;5.70;;;26.80;82.50;;;;;;5062387;28;20021;-53
2021/03/15 10:47:38;;;;;;;8.63;6.20;;;26.80;82.70;;;;;;5062477;28;20393;-55
2021/03/15 10:50:27;;;;;;;13.63;6.57;;;26.80;82.80;;;;;;5062570;28;20025;-48
2021/03/15 10:52:55;;;;;;;9.82;6.53;;;26.80;83.00;;;;;;5062503;28;20205;-46
2021/03/15 10:55:34;;;;;;;10.15;7.20;;;26.80;83.50;;;;;;5062764;28;20032;-46
2021/03/15 10:58:11;;;;;;;9.68;6.85;;;26.80;84.40;;;;;;5062206;28;20025;-45
2021/03/15 11:01:01;;;;;;;10.25;6.63;;;26.80;85.00;;;;;;5062173;28;20056;-44
2021/03/15 11:03:30;;;;;;;9.70;7.10;;;26.80;85.00;;;;;;5062206;28;20250;-43
2021/03/15 11:06:15;;;;;;;10.00;6.78;;;26.80;85.20;;;;;;5061769;28;20044;-48
2021/03/15 11:08:52;;;;;;;8.02;6.55;;;26.70;85.90;;;;;;5061767;28;20048;-48
2021/03/15 11:11:29;;;;;;;11.68;6.82;;;26.70;85.60;;;;;;5062594;28;20037;-45
2021/03/15 11:14:02;;;;;;;12.52;7.28;;;26.70;86.20;;;;;;5061885;28;20021;-47
2021/03/15 11:16:33;;;;;;;10.23;8.05;;;26.70;86.00;;;;;;5062122;28;20033;-52
2021/03/15 11:19:15;;;;;;;13.57;7.83;;;26.60;86.10;;;;;;5061797;28;20086;-47
2021/03/15 11:21:44;;;;;;;12.80;7.30;;;26.60;86.40;;;;;;5062072;28;20507;-46
2021/03/15 11:24:11;;;;;;;11.38;8.05;;;26.60;86.50;;;;;;5061627;28;20017;-46
2021/03/15 11:26:49;;;;;;;14.82;8.23;;;26.60;87.00;;;;;;5062160;28;20029;-48
2021/03/15 11:29:17;;;;;;;13.23;7.55;;;26.60;87.00;;;;;;5061611;28;20020;-53
2021/03/15 11:31:53;;;;;;;9.38;7.97;;;26.60;87.30;;;;;;5061853;28;20094;-54
2021/03/15 11:34:22;;;;;;;11.30;7.28;;;26.60;87.30;;;;;;5061394;28;20021;-50
2021/03/15 11:36:49;;;;;;;14.02;7.47;;;26.60;87.30;;;;;;5061777;28;20198;-50
2021/03/15 11:39:17;;;;;;;11.20;7.50;;;26.60;87.30;;;;;;5061265;28;20081;-53
2021/03/15 11:41:45;;;;;;;11.90;7.15;;;26.60;87.20;;;;;;5060950;28;20093;-48
2021/03/15 11:44:12;;;;;;;10.82;7.60;;;26.60;87.30;;;;;;5061002;28;20017;-54
2021/03/15 11:46:40;;;;;;;10.05;7.57;;;26.60;87.60;;;;;;5061339;28;20100;-51
2021/03/15 11:49:06;;;;;;;12.93;7.80;;;26.60;87.80;;;;;;5061058;28;20027;-53
2021/03/15 11:51:33;;;;;;;13.90;7.40;;;26.60;87.90;;;;;;5061667;28;20242;-43
2021/03/15 11:53:59;;;;;;;17.20;9.00;;;26.60;88.10;;;;;;5061130;28;20224;-44
2021/03/15 11:56:26;;;;;;;16.13;10.23;;;26.60;88.40;;;;;;5061325;28;20125;-44
2021/03/15 11:58:53;;;;;;;15.70;11.02;;;26.60;88.80;;;;;;5061201;28;20013;-47
2021/03/15 12:01:20;;;;;;;18.45;9.30;;;26.60;89.60;;;;;;5061437;28;20191;-48
2021/03/15 12:03:46;;;;;;;14.93;8.95;;;26.60;89.90;;;;;;5060647;28;20082;-51
2021/03/15 12:06:13;;;;;;;15.57;8.25;;;26.60;90.00;;;;;;5061434;28;20021;-53
2021/03/15 12:08:40;;;;;;;19.52;8.95;;;26.60;90.10;;;;;;5060709;28;20048;-54
2021/03/15 12:11:06;;;;;;;16.33;8.88;;;26.60;90.20;;;;;;5061083;28;20029;-51
2021/03/15 12:13:33;;;;;;;15.48;8.52;;;26.60;90.40;;;;;;5060767;28;20020;-46
2021/03/15 12:16:00;;;;;;;13.45;7.15;;;26.60;90.50;;;;;;5061217;28;20266;-46
2021/03/15 12:18:27;;;;;;;16.83;8.38;;;26.50;90.20;;;;;;5060862;28;20059;-50
2021/03/15 12:20:54;;;;;;;15.25;8.25;;;26.50;90.50;;;;;;5061172;28;20025;-53
2021/03/15 12:23:20;;;;;;;14.27;7.60;;;26.50;90.60;;;;;;5061223;28;20013;-49
2021/03/15 12:25:47;;;;;;;11.57;7.72;;;26.40;90.80;;;;;;5060941;28;20117;-45
2021/03/15 12:28:15;;;;;;;14.45;7.30;;;26.40;90.80;;;;;;5061016;28;20025;-44
2021/03/15 12:30:42;;;;;;;14.35;6.65;;;26.40;90.80;;;;;;5060832;28;20060;-42
2021/03/15 12:33:08;;;;;;;14.52;6.28;;;26.40;90.80;;;;;;5060651;28;20073;-44
2021/03/15 12:35:35;;;;;;;12.00;5.65;;;26.30;90.80;;;;;;5060835;28;20029;-51
2021/03/15 12:38:02;;;;;;;11.18;6.40;;;26.30;90.80;;;;;;5060643;28;20321;-50
2021/03/15 12:40:29;;;;;;;8.40;5.95;;;26.30;91.00;;;;;;5060522;28;20154;-46
2021/03/15 12:42:55;;;;;;;9.73;6.65;;;26.30;90.90;;;;;;5060562;28;20205;-54
2021/03/15 12:45:22;;;;;;;9.23;6.40;;;26.30;91.00;;;;;;5060726;28;20029;-52
2021/03/15 12:47:48;;;;;;;8.68;6.20;;;26.30;91.10;;;;;;5060395;28;20040;-54
2021/03/15 12:50:15;;;;;;;10.60;6.40;;;26.20;91.00;;;;;;5060510;28;20033;-45
2021/03/15 12:52:42;;;;;;;9.57;6.53;;;26.20;91.00;;;;;;5060355;28;20021;-48
2021/03/15 12:55:09;;;;;;;9.27;6.05;;;26.20;91.00;;;;;;5060636;28;20029;-50
2021/03/15 12:57:35;;;;;;;10.40;6.50;;;26.20;91.10;;;;;;5060379;28;20044;-51
2021/03/15 13:00:03;;;;;;;9.73;6.15;;;26.10;90.90;;;;;;5062619;28;20025;-46
2021/03/15 13:02:31;;;;;;;12.43;6.47;;;26.10;91.00;;;;;;5063628;28;20021;-49
2021/03/15 13:04:58;;;;;;;11.73;8.27;;;26.10;91.10;;;;;;5064001;28;20311;-54